createdAt,value
2022-10-06T04:04:20.209Z,1.08
2022-10-06T04:08:27.664Z,0.98
2022-10-06T04:12:31.067Z,1.42
2022-10-06T04:16:35.282Z,1.53
2022-10-06T04:20:40.857Z,1.95
2022-10-06T04:24:43.606Z,1.30
2022-10-06T04:28:47.263Z,1.40
2022-10-06T04:32:51.113Z,1.52
2022-10-06T04:36:55.415Z,2.05
2022-10-06T04:41:05.289Z,1.70
2022-10-06T04:45:09.103Z,1.80
2022-10-06T04:49:19.519Z,1.55
2022-10-06T04:53:26.050Z,1.63
2022-10-06T04:57:29.212Z,1.90
2022-10-06T05:01:34.923Z,1.70
2022-10-06T05:05:40.112Z,2.40
2022-10-06T05:09:44.130Z,2.10
2022-10-06T05:13:47.056Z,1.35
2022-10-06T05:17:49.737Z,1.67
2022-10-06T05:21:52.775Z,1.55
2022-10-06T05:26:01.630Z,1.63
2022-10-06T05:30:05.321Z,1.85
2022-10-06T05:34:08.372Z,2.40
2022-10-06T05:38:11.699Z,1.88
2022-10-06T05:42:15.973Z,1.70
2022-10-06T05:46:20.968Z,1.67
2022-10-06T05:50:24.970Z,1.60
2022-10-06T05:54:27.805Z,2.08
2022-10-06T05:58:32.405Z,1.55
2022-10-06T06:02:35.300Z,1.60
2022-10-06T06:06:39.791Z,1.67
2022-10-06T06:10:45.940Z,1.70
2022-10-06T06:15:08.200Z,2.45
2022-10-06T06:19:18.244Z,2.45
2022-10-06T06:23:22.122Z,1.92
2022-10-06T06:27:26.211Z,1.83
2022-10-06T06:31:32.297Z,1.73
2022-10-06T06:35:35.251Z,2.28
2022-10-06T06:39:38.138Z,1.55
2022-10-06T06:43:41.535Z,1.80
2022-10-06T06:48:15.398Z,2.22
2022-10-06T06:52:20.662Z,2.10
2022-10-06T06:56:23.721Z,1.98
2022-10-06T07:00:26.411Z,2.00
2022-10-06T07:04:30.420Z,2.80
2022-10-06T07:08:33.476Z,1.80
2022-10-06T07:12:36.716Z,1.80
2022-10-06T07:16:57.032Z,1.90
2022-10-06T07:21:19.351Z,1.70
2022-10-06T07:25:26.294Z,1.85
2022-10-06T07:29:36.439Z,2.22
2022-10-06T07:33:40.750Z,1.73
2022-10-06T07:37:45.450Z,2.30
2022-10-06T07:41:48.188Z,2.20
2022-10-06T07:45:51.215Z,1.97
2022-10-06T07:50:23.099Z,1.88
2022-10-06T07:54:27.537Z,1.83
2022-10-06T07:58:53.152Z,2.15
2022-10-06T08:02:55.830Z,2.40
2022-10-06T08:06:58.472Z,2.07
2022-10-06T08:11:02.539Z,2.20
2022-10-06T08:15:07.526Z,1.90
2022-10-06T08:19:11.571Z,2.67
2022-10-06T08:23:14.736Z,2.00
2022-10-06T08:27:18.631Z,1.70
2022-10-06T08:31:23.587Z,1.83
2022-10-06T08:35:26.235Z,1.70
2022-10-06T08:39:30.725Z,1.83
2022-10-06T08:43:35.667Z,2.20
2022-10-06T08:47:38.442Z,1.40
2022-10-06T08:51:54.390Z,1.50
2022-10-06T08:56:06.954Z,2.13
2022-10-06T09:00:18.156Z,1.70
2022-10-06T09:04:28.425Z,1.88
2022-10-06T09:08:41.996Z,1.77
2022-10-06T09:16:54.676Z,1.77
2022-10-06T09:20:59.737Z,1.58
2022-10-06T09:25:15.762Z,1.70
2022-10-06T09:29:18.635Z,1.65
2022-10-06T09:33:25.103Z,1.65
2022-10-06T09:37:28.493Z,1.58
2022-10-06T09:45:35.228Z,1.50
2022-10-06T09:49:39.152Z,1.47
2022-10-06T09:53:42.346Z,2.10
2022-10-06T09:57:50.168Z,1.52
2022-10-06T10:01:55.218Z,1.63
2022-10-06T10:06:02.161Z,1.40
2022-10-06T10:10:20.602Z,1.40
2022-10-06T10:14:23.176Z,2.53
2022-10-06T10:18:30.397Z,1.60
2022-10-06T10:22:36.915Z,1.52
2022-10-06T10:26:48.229Z,1.65
2022-10-06T10:31:02.588Z,1.77
2022-10-06T10:35:16.534Z,1.50
2022-10-06T10:39:30.975Z,1.50
2022-10-06T10:43:36.043Z,1.50
2022-10-06T10:47:42.476Z,1.58
2022-10-06T10:51:51.534Z,1.50
2022-10-06T10:55:55.543Z,2.15
2022-10-06T11:00:02.116Z,1.65
2022-10-06T11:04:05.007Z,1.38
2022-10-06T11:08:14.869Z,1.50
2022-10-06T11:12:33.418Z,1.65
2022-10-06T11:16:42.332Z,1.60
2022-10-06T11:20:51.128Z,1.70
2022-10-06T11:29:26.462Z,1.70
2022-10-06T11:33:37.009Z,1.38
2022-10-06T11:37:45.078Z,1.48
2022-10-06T11:41:52.874Z,1.30
2022-10-06T11:46:05.382Z,1.60
2022-10-06T11:50:36.432Z,1.57
2022-10-06T11:54:48.475Z,1.42
2022-10-06T11:59:10.762Z,1.48
2022-10-06T12:03:49.983Z,1.30
2022-10-06T12:08:16.666Z,1.27
2022-10-06T12:13:21.261Z,1.17
2022-10-06T12:17:24.388Z,1.25
2022-10-06T12:21:44.890Z,1.23
2022-10-06T12:25:56.720Z,1.30
2022-10-06T12:30:05.312Z,1.15
2022-10-06T12:34:41.719Z,1.08
2022-10-06T12:39:01.184Z,1.60
2022-10-06T12:43:28.410Z,1.17
2022-10-06T12:47:38.207Z,1.30
2022-10-06T12:51:43.251Z,1.50
2022-10-06T12:55:49.088Z,1.30
2022-10-06T12:59:53.023Z,1.17
2022-10-06T13:03:56.143Z,1.02
2022-10-06T13:08:00.961Z,1.73
2022-10-06T13:12:21.092Z,1.27
2022-10-06T13:16:27.144Z,1.52
2022-10-06T13:20:36.549Z,1.10
2022-10-06T13:24:39.817Z,1.45
2022-10-06T13:32:55.467Z,1.00
2022-10-06T13:37:00.314Z,1.00
2022-10-06T13:41:14.608Z,1.20
2022-10-06T13:45:17.471Z,1.23
2022-10-06T13:49:25.971Z,1.15
2022-10-06T13:53:31.167Z,1.25
2022-10-06T13:57:38.640Z,1.20
2022-10-06T14:01:41.308Z,1.08
2022-10-06T14:05:46.602Z,1.33
2022-10-06T14:09:51.268Z,1.50
2022-10-06T14:13:57.005Z,0.98
2022-10-06T14:18:03.167Z,0.95
2022-10-06T14:22:27.609Z,1.15
2022-10-06T14:26:32.318Z,1.50
2022-10-06T14:30:34.898Z,1.08
2022-10-06T14:34:37.583Z,1.40
2022-10-06T14:38:42.770Z,0.90
2022-10-06T14:42:45.592Z,1.40
2022-10-06T14:46:50.121Z,1.00
2022-10-06T14:50:52.727Z,1.10
2022-10-06T14:54:56.951Z,0.98
2022-10-06T14:59:02.161Z,1.27
2022-10-06T15:03:04.845Z,1.50
2022-10-06T15:07:24.848Z,1.30
2022-10-06T15:11:29.952Z,2.17
2022-10-06T15:15:33.667Z,1.20
2022-10-06T15:19:36.313Z,0.95
2022-10-06T15:23:39.751Z,1.38
2022-10-06T15:28:01.329Z,1.70
2022-10-06T15:32:06.017Z,1.30
2022-10-06T15:36:17.952Z,1.25
2022-10-06T15:40:20.523Z,1.08
2022-10-06T15:44:24.617Z,1.60
2022-10-06T15:48:27.211Z,1.20
2022-10-06T15:52:33.798Z,1.13
2022-10-06T15:56:37.503Z,1.45
2022-10-06T16:00:41.774Z,1.40
2022-10-06T16:04:57.533Z,1.25
2022-10-06T16:09:00.158Z,1.60
2022-10-06T16:13:02.745Z,1.88
2022-10-06T16:17:09.363Z,1.40
2022-10-06T16:21:11.933Z,1.40
2022-10-06T16:25:14.678Z,1.15
2022-10-06T16:29:18.427Z,1.30
2022-10-06T16:33:22.481Z,1.20
2022-10-06T16:37:25.068Z,1.67
2022-10-06T16:41:27.740Z,1.10
2022-10-06T16:45:30.464Z,1.80
2022-10-06T16:49:34.407Z,8.15
2022-10-06T16:53:38.819Z,4.70
2022-10-06T16:57:41.436Z,6.22
2022-10-06T17:01:44.249Z,6.60
2022-10-06T17:05:48.334Z,4.05
2022-10-06T17:10:08.384Z,1.63
2022-10-06T17:14:13.878Z,3.88
2022-10-06T17:18:16.764Z,2.55
2022-10-06T17:22:20.695Z,3.30
2022-10-06T17:26:27.419Z,3.35
2022-10-06T17:30:30.032Z,1.50
2022-10-06T17:34:34.189Z,1.50
2022-10-06T17:38:41.750Z,2.20
2022-10-06T17:42:44.290Z,1.60
2022-10-06T17:46:48.078Z,2.37
2022-10-06T17:50:57.974Z,2.47
2022-10-06T17:55:02.239Z,3.33
2022-10-06T17:59:07.437Z,3.03
2022-10-06T18:03:10.057Z,3.08
2022-10-06T18:07:12.617Z,4.67
2022-10-06T18:11:35.716Z,5.23
2022-10-06T18:15:38.438Z,11.40
2022-10-06T18:19:41.005Z,8.43
2022-10-06T18:23:43.730Z,5.17
2022-10-06T18:27:48.370Z,6.17
2022-10-06T18:31:52.446Z,5.05
2022-10-06T18:36:14.645Z,9.90
2022-10-06T18:40:18.044Z,4.43
2022-10-06T18:44:35.976Z,2.90
2022-10-06T18:48:58.485Z,4.60
2022-10-06T18:53:01.466Z,4.00
2022-10-06T18:57:04.081Z,3.90
2022-10-06T19:01:08.704Z,3.73
2022-10-06T19:05:11.448Z,3.63
2022-10-06T19:09:17.561Z,3.27
2022-10-06T19:13:22.315Z,5.07
2022-10-06T19:17:26.311Z,3.95
2022-10-06T19:21:28.876Z,4.90
2022-10-06T19:25:33.195Z,4.05
2022-10-06T19:29:37.519Z,3.60
2022-10-06T19:33:43.294Z,3.53
2022-10-06T19:37:46.218Z,4.30
2022-10-06T19:42:06.560Z,10.57
2022-10-06T19:46:09.192Z,5.05
2022-10-06T19:50:13.402Z,4.43
2022-10-06T19:54:17.778Z,3.55
2022-10-06T19:58:20.654Z,3.75
2022-10-06T20:02:23.525Z,4.25
2022-10-06T20:06:27.564Z,4.07
2022-10-06T20:10:30.244Z,4.07
2022-10-06T20:14:32.830Z,4.33
2022-10-06T20:18:36.762Z,4.13
2022-10-06T20:22:40.801Z,4.20
2022-10-06T20:26:43.917Z,7.20
2022-10-06T20:30:49.906Z,6.00
2022-10-06T20:34:52.587Z,5.93
2022-10-06T20:39:14.503Z,4.53
2022-10-06T20:43:17.091Z,6.30
2022-10-06T20:47:21.139Z,7.32
2022-10-06T20:51:27.645Z,4.05
2022-10-06T20:55:31.810Z,5.13
2022-10-06T20:59:35.324Z,4.47
